Time;durP1;ratioP1;P1;durP2;ratioP2;P2;SDS_P1;SDS_P2;PMS_P1;PMS_P2;Temp;Humidity;BMP_temperature;BMP_pressure;BME280_temperature;BME280_humidity;BME280_pressure;Samples;Min_cycle;Max_cycle;Signal;HPM_P1;HPM_P2
2022/10/15 00:02:06;;;;;;;6.67;1.40;;;14.10;71.70;;;;;;4967925;28;48373;-84
2022/10/15 00:04:32;;;;;;;2.83;1.30;;;14.20;72.00;;;;;;4965713;28;51123;-85
2022/10/15 00:06:58;;;;;;;3.13;1.60;;;14.20;71.90;;;;;;4961443;28;46434;-84
2022/10/15 00:09:24;;;;;;;4.77;1.67;;;14.20;72.10;;;;;;4966513;28;46433;-85
2022/10/15 00:11:50;;;;;;;2.20;1.50;;;14.20;72.00;;;;;;4966564;28;48291;-84
2022/10/15 00:14:16;;;;;;;3.23;1.40;;;14.20;71.80;;;;;;4983366;28;46274;-84
2022/10/15 00:16:42;;;;;;;3.33;1.60;;;14.20;71.90;;;;;;4982620;28;46539;-84
2022/10/15 00:19:08;;;;;;;2.63;1.50;;;14.20;72.10;;;;;;4988355;28;46632;-84
2022/10/15 00:21:34;;;;;;;2.40;1.40;;;14.20;71.90;;;;;;4965127;28;48960;-83
2022/10/15 00:24:00;;;;;;;2.30;1.40;;;14.20;71.80;;;;;;4984778;28;45878;-85
2022/10/15 00:26:27;;;;;;;2.93;1.20;;;14.30;72.90;;;;;;4983088;28;46418;-84
2022/10/15 00:28:56;;;;;;;2.77;1.40;;;14.30;71.70;;;;;;4964823;28;46608;-83
2022/10/15 00:31:25;;;;;;;2.93;1.40;;;14.30;71.70;;;;;;4964574;28;48218;-84
2022/10/15 00:33:52;;;;;;;9.00;1.67;;;14.30;71.80;;;;;;4980879;28;46373;-84
2022/10/15 00:36:23;;;;;;;3.03;1.60;;;14.30;72.00;;;;;;4983024;28;46370;-85
2022/10/15 00:38:50;;;;;;;4.07;1.97;;;14.30;71.90;;;;;;4980484;28;46460;-85
2022/10/15 00:41:29;;;;;;;5.20;1.50;;;14.30;71.90;;;;;;4965137;28;48004;-84
2022/10/15 00:44:19;;;;;;;5.47;1.60;;;14.30;71.90;;;;;;4955743;28;46363;-84
2022/10/15 00:46:47;;;;;;;2.60;1.50;;;14.30;71.80;;;;;;4960888;28;46588;-85
2022/10/15 00:49:20;;;;;;;2.10;1.20;;;14.30;72.00;;;;;;4982729;28;46468;-85
2022/10/15 00:52:00;;;;;;;4.80;1.73;;;14.30;72.20;;;;;;4984224;28;47191;-85
2022/10/15 00:54:29;;;;;;;2.40;1.50;;;14.30;72.20;;;;;;4967923;28;46417;-85
2022/10/15 00:56:55;;;;;;;4.17;1.40;;;14.30;72.50;;;;;;4966268;28;46733;-84
2022/10/15 00:59:23;;;;;;;3.23;1.30;;;14.30;72.40;;;;;;4987196;28;45942;-85
2022/10/15 01:01:49;;;;;;;3.17;1.50;;;14.30;72.50;;;;;;4985169;28;47517;-85
2022/10/15 01:04:17;;;;;;;3.33;1.70;;;14.30;72.50;;;;;;4967334;28;46614;-84
2022/10/15 01:06:43;;;;;;;2.03;1.10;;;14.30;72.40;;;;;;4969344;28;46502;-84
2022/10/15 01:09:09;;;;;;;2.70;1.33;;;14.40;72.50;;;;;;4972566;28;46904;-85
2022/10/15 01:11:48;;;;;;;5.33;1.20;;;14.40;72.40;;;;;;4986018;28;46534;-85
2022/10/15 01:14:13;;;;;;;3.30;1.53;;;14.40;72.30;;;;;;4982527;28;46474;-85
2022/10/15 01:16:44;;;;;;;2.60;1.40;;;14.40;72.30;;;;;;4986151;28;46280;-85
2022/10/15 01:19:25;;;;;;;1.70;1.10;;;14.40;72.50;;;;;;4968386;28;46796;-85
2022/10/15 01:22:03;;;;;;;2.30;1.30;;;14.40;72.50;;;;;;4969240;28;48451;-85
2022/10/15 01:24:31;;;;;;;1.80;1.10;;;14.40;72.70;;;;;;4987431;28;46291;-84
2022/10/15 01:27:18;;;;;;;2.23;1.27;;;14.40;72.80;;;;;;4983826;28;46504;-85
2022/10/15 01:30:06;;;;;;;4.03;1.30;;;14.40;73.10;;;;;;4983079;28;46252;-84
2022/10/15 01:32:47;;;;;;;2.60;1.10;;;14.40;73.10;;;;;;4985597;28;46436;-85
2022/10/15 01:35:36;;;;;;;2.20;1.30;;;14.40;73.20;;;;;;4986771;28;46450;-85
2022/10/15 01:38:13;;;;;;;4.90;1.20;;;14.40;73.10;;;;;;4968804;28;46410;-85
2022/10/15 01:40:54;;;;;;;2.50;1.30;;;14.40;73.30;;;;;;4983215;28;46501;-85
2022/10/15 01:43:34;;;;;;;3.50;1.13;;;14.40;73.30;;;;;;4968172;28;49284;-85
2022/10/15 01:46:09;;;;;;;2.00;1.07;;;14.40;72.40;;;;;;4958303;28;45900;-85
2022/10/15 01:48:37;;;;;;;2.47;1.33;;;14.40;73.50;;;;;;4967421;28;46547;-84
2022/10/15 01:51:04;;;;;;;2.67;1.00;;;14.40;73.50;;;;;;4984388;28;46306;-83
2022/10/15 01:53:33;;;;;;;3.97;1.10;;;14.40;73.60;;;;;;4967546;28;48245;-84
2022/10/15 01:56:13;;;;;;;1.67;1.00;;;14.40;73.80;;;;;;4966905;28;46651;-84
2022/10/15 01:58:43;;;;;;;1.97;1.10;;;14.40;73.70;;;;;;4988004;28;46377;-84
2022/10/15 02:01:09;;;;;;;1.90;0.97;;;14.40;73.70;;;;;;4966611;28;46713;-84
2022/10/15 02:03:45;;;;;;;2.07;1.03;;;14.40;73.80;;;;;;4983630;28;46781;-84
2022/10/15 02:06:32;;;;;;;1.50;0.80;;;14.40;73.90;;;;;;4968323;28;46889;-83
2022/10/15 02:09:19;;;;;;;1.73;0.97;;;14.40;74.10;;;;;;4960841;28;46268;-85
2022/10/15 02:12:10;;;;;;;1.40;0.83;;;14.40;74.30;;;;;;4990707;28;46381;-84
2022/10/15 02:14:46;;;;;;;1.57;0.87;;;14.40;74.20;;;;;;4987175;28;46688;-84
2022/10/15 02:17:14;;;;;;;1.70;0.90;;;14.50;74.40;;;;;;4970413;28;46893;-85
2022/10/15 02:19:50;;;;;;;2.10;1.00;;;14.50;74.40;;;;;;4991082;28;46384;-84
2022/10/15 02:22:23;;;;;;;1.80;1.00;;;14.50;74.50;;;;;;4976910;28;45864;-85
2022/10/15 02:24:55;;;;;;;3.20;0.83;;;14.50;74.50;;;;;;4994762;28;48022;-85
2022/10/15 02:27:21;;;;;;;1.40;0.90;;;14.50;74.50;;;;;;4976260;28;46500;-84
2022/10/15 02:29:49;;;;;;;1.33;0.80;;;14.60;74.70;;;;;;4976304;28;46509;-85
2022/10/15 02:32:17;;;;;;;2.67;1.07;;;14.60;74.70;;;;;;4979397;28;45949;-84
2022/10/15 02:34:45;;;;;;;1.20;0.70;;;14.60;74.70;;;;;;4969567;28;48329;-85
2022/10/15 02:37:12;;;;;;;3.73;0.90;;;14.60;74.70;;;;;;4994397;28;46383;-84
2022/10/15 02:39:38;;;;;;;1.40;0.70;;;14.60;74.80;;;;;;4975398;28;46349;-85
2022/10/15 02:42:04;;;;;;;2.47;0.73;;;14.60;74.80;;;;;;4994083;28;46644;-84
2022/10/15 02:44:30;;;;;;;1.30;0.70;;;14.60;75.00;;;;;;4973186;28;48225;-84
2022/10/15 02:46:57;;;;;;;2.43;0.80;;;14.70;75.20;;;;;;4993415;28;46361;-83
2022/10/15 02:49:23;;;;;;;1.43;0.70;;;14.70;75.20;;;;;;4970437;28;46405;-84
2022/10/15 02:51:48;;;;;;;1.57;0.87;;;14.70;75.40;;;;;;4989385;28;46330;-84
2022/10/15 02:54:14;;;;;;;1.60;0.70;;;14.70;75.40;;;;;;4977884;28;47997;-85
2022/10/15 02:56:39;;;;;;;9.17;1.00;;;14.70;75.50;;;;;;4970668;28;46469;-84
2022/10/15 02:59:06;;;;;;;1.27;0.70;;;14.70;75.40;;;;;;4987214;28;46772;-85
2022/10/15 03:01:32;;;;;;;1.23;0.80;;;14.80;75.60;;;;;;4989294;28;46677;-85
2022/10/15 03:03:57;;;;;;;3.67;0.87;;;14.70;75.50;;;;;;4987785;28;48303;-85
2022/10/15 03:06:23;;;;;;;2.73;0.80;;;14.80;75.60;;;;;;4996511;28;46394;-87
2022/10/15 03:08:48;;;;;;;1.33;0.70;;;14.80;75.80;;;;;;4982920;28;46520;-85
2022/10/15 03:11:14;;;;;;;1.67;0.90;;;14.80;75.60;;;;;;4984882;28;46457;-85
2022/10/15 03:13:40;;;;;;;3.30;0.70;;;14.80;75.50;;;;;;4996543;28;47515;-85
2022/10/15 03:16:08;;;;;;;4.93;0.80;;;14.80;74.50;;;;;;4981651;28;47050;-84
2022/10/15 03:18:34;;;;;;;1.80;0.80;;;14.90;75.60;;;;;;4980879;28;46508;-85
2022/10/15 03:21:00;;;;;;;1.20;0.60;;;14.90;75.50;;;;;;4980326;28;46486;-84
2022/10/15 03:23:26;;;;;;;2.13;0.80;;;14.90;75.40;;;;;;4980327;28;48104;-84
2022/10/15 03:25:53;;;;;;;3.00;0.80;;;14.90;75.40;;;;;;4979775;28;46459;-85
2022/10/15 03:28:19;;;;;;;1.60;0.80;;;14.90;75.50;;;;;;4982789;28;46589;-84
2022/10/15 03:30:44;;;;;;;1.30;0.80;;;14.90;75.50;;;;;;4980661;28;46380;-86
2022/10/15 03:33:10;;;;;;;1.37;0.70;;;14.90;75.50;;;;;;4998740;28;48763;-85
2022/10/15 03:35:37;;;;;;;2.50;0.70;;;15.00;75.60;;;;;;4979558;28;46728;-85
2022/10/15 03:38:03;;;;;;;2.17;0.70;;;14.90;75.40;;;;;;4994769;28;46486;-85
2022/10/15 03:40:29;;;;;;;2.47;0.70;;;15.00;75.30;;;;;;4999036;28;46029;-85
2022/10/15 03:42:55;;;;;;;1.57;0.70;;;15.00;75.40;;;;;;4994685;28;49954;-85
2022/10/15 03:45:21;;;;;;;1.30;0.80;;;15.00;75.50;;;;;;4979427;28;46327;-84
2022/10/15 03:47:47;;;;;;;1.50;0.90;;;15.00;75.60;;;;;;4969602;28;46552;-85
2022/10/15 03:50:12;;;;;;;3.00;0.80;;;15.00;75.70;;;;;;4973336;28;46560;-86
2022/10/15 03:52:39;;;;;;;3.30;0.73;;;15.00;75.70;;;;;;4990024;28;46701;-84
2022/10/15 03:55:06;;;;;;;1.33;0.80;;;15.00;75.80;;;;;;4995848;28;46330;-84
2022/10/15 03:57:31;;;;;;;1.20;0.70;;;15.00;75.90;;;;;;4980888;28;46331;-84
2022/10/15 03:59:57;;;;;;;1.67;0.70;;;14.90;75.90;;;;;;4981615;28;46432;-85
2022/10/15 04:02:23;;;;;;;5.53;0.90;;;15.00;76.00;;;;;;4970519;28;48616;-85
2022/10/15 04:04:51;;;;;;;1.60;0.90;;;14.90;76.00;;;;;;4977962;28;46312;-85
2022/10/15 04:07:18;;;;;;;1.30;0.80;;;14.90;76.20;;;;;;4981705;28;46454;-85
2022/10/15 04:09:43;;;;;;;2.60;0.80;;;14.90;76.30;;;;;;4978254;28;46596;-86
2022/10/15 04:12:09;;;;;;;1.40;0.80;;;14.90;76.40;;;;;;4978777;28;48370;-86
2022/10/15 04:14:34;;;;;;;2.07;0.77;;;14.90;76.30;;;;;;4979055;28;45779;-86
2022/10/15 04:17:00;;;;;;;1.60;0.90;;;14.90;76.20;;;;;;4979483;28;46242;-85
2022/10/15 04:19:26;;;;;;;2.47;0.70;;;14.90;76.30;;;;;;4975282;28;46283;-84
2022/10/15 04:21:51;;;;;;;1.70;0.90;;;15.00;76.40;;;;;;4974562;28;48131;-85
2022/10/15 04:24:17;;;;;;;1.60;0.97;;;14.90;76.20;;;;;;4975225;28;47367;-85
2022/10/15 04:26:42;;;;;;;2.60;0.80;;;15.00;76.30;;;;;;4973517;28;46338;-84
2022/10/15 04:29:08;;;;;;;3.43;0.90;;;15.00;76.20;;;;;;4990183;28;46350;-85
2022/10/15 04:31:33;;;;;;;1.70;0.93;;;15.00;76.30;;;;;;4974694;28;48268;-84
2022/10/15 04:33:59;;;;;;;3.20;0.83;;;15.00;76.00;;;;;;4989434;28;46301;-85
2022/10/15 04:36:24;;;;;;;1.43;0.80;;;15.00;76.10;;;;;;4992140;28;46403;-85
2022/10/15 04:38:51;;;;;;;1.70;0.70;;;15.10;76.00;;;;;;4966959;28;46381;-84
2022/10/15 04:41:17;;;;;;;2.60;1.00;;;15.00;76.00;;;;;;4984569;28;48041;-85
2022/10/15 04:43:42;;;;;;;15.43;8.90;;;15.10;76.20;;;;;;4988399;28;46991;-84
2022/10/15 04:46:08;;;;;;;2.73;1.70;;;15.10;76.20;;;;;;4970433;28;46417;-84
2022/10/15 04:48:36;;;;;;;1.90;1.20;;;15.10;76.10;;;;;;4972384;28;46354;-84
2022/10/15 04:51:06;;;;;;;1.30;0.70;;;15.10;76.20;;;;;;4968861;28;48365;-83
2022/10/15 04:53:32;;;;;;;1.60;0.97;;;15.10;76.50;;;;;;4971428;28;46426;-85
2022/10/15 04:56:03;;;;;;;1.87;1.00;;;15.10;75.20;;;;;;4972236;28;46824;-83
2022/10/15 04:58:30;;;;;;;1.70;1.00;;;15.20;76.40;;;;;;4970598;28;46597;-84
2022/10/15 05:01:11;;;;;;;1.40;0.80;;;15.10;76.20;;;;;;4969677;28;48745;-85
2022/10/15 05:03:38;;;;;;;1.67;0.97;;;15.10;76.20;;;;;;4969506;28;46623;-85
2022/10/15 05:06:20;;;;;;;1.60;0.90;;;15.10;75.50;;;;;;4970415;28;46469;-85
2022/10/15 05:08:47;;;;;;;1.60;0.90;;;15.10;76.40;;;;;;4984526;28;46290;-84
2022/10/15 05:11:15;;;;;;;1.73;0.97;;;15.10;76.50;;;;;;4987029;28;46442;-84
2022/10/15 05:13:41;;;;;;;1.80;0.90;;;15.10;76.40;;;;;;4969298;28;46729;-84
2022/10/15 05:16:12;;;;;;;1.40;0.90;;;15.10;75.50;;;;;;4970391;28;46692;-85
2022/10/15 05:18:38;;;;;;;1.90;1.10;;;15.10;76.50;;;;;;4985638;28;46048;-84
2022/10/15 05:21:04;;;;;;;2.50;0.90;;;15.10;76.50;;;;;;4989499;28;46519;-84
2022/10/15 05:23:30;;;;;;;3.00;0.93;;;15.10;76.50;;;;;;4970229;28;46430;-84
2022/10/15 05:25:59;;;;;;;2.40;1.00;;;15.10;75.70;;;;;;4969935;28;46486;-86
2022/10/15 05:28:25;;;;;;;1.30;0.73;;;15.10;76.70;;;;;;4969626;28;46443;-85
2022/10/15 05:30:50;;;;;;;1.50;0.90;;;15.10;76.80;;;;;;4988509;28;49103;-84
2022/10/15 05:33:16;;;;;;;1.70;1.10;;;15.10;76.90;;;;;;4972134;28;47232;-84
2022/10/15 05:35:41;;;;;;;2.00;1.10;;;15.10;76.90;;;;;;4992438;28;46283;-85
2022/10/15 05:38:07;;;;;;;3.07;0.90;;;15.10;77.10;;;;;;4999392;28;46750;-86
2022/10/15 05:40:33;;;;;;;47.00;29.63;;;15.10;77.10;;;;;;4983315;28;49203;-85
2022/10/15 05:42:58;;;;;;;1.93;1.10;;;15.10;77.20;;;;;;4983200;28;46398;-85
2022/10/15 05:45:24;;;;;;;1.67;1.07;;;15.10;77.10;;;;;;4995460;28;47661;-86
2022/10/15 05:47:55;;;;;;;1.70;1.10;;;15.20;77.20;;;;;;5000336;28;46768;-85
2022/10/15 05:50:24;;;;;;;1.40;0.90;;;15.10;77.00;;;;;;4998784;28;46815;-85
2022/10/15 05:52:49;;;;;;;2.13;1.00;;;15.10;77.00;;;;;;4980633;28;46716;-85
2022/10/15 05:55:15;;;;;;;1.50;0.80;;;15.10;76.70;;;;;;4978837;28;46496;-85
2022/10/15 05:57:40;;;;;;;3.00;1.80;;;15.10;76.70;;;;;;4974490;28;46470;-86
2022/10/15 06:00:07;;;;;;;2.93;1.30;;;15.10;76.90;;;;;;4982521;28;53617;-85
2022/10/15 06:02:32;;;;;;;12.17;3.83;;;15.10;76.90;;;;;;4983323;28;46481;-86
2022/10/15 06:04:58;;;;;;;2.50;1.40;;;15.10;76.90;;;;;;4998008;28;46996;-85
2022/10/15 06:07:24;;;;;;;4.53;1.43;;;15.10;77.00;;;;;;4980583;28;45886;-85
2022/10/15 06:09:49;;;;;;;2.17;1.40;;;15.10;76.90;;;;;;4980505;28;49475;-85
2022/10/15 06:12:15;;;;;;;3.40;1.80;;;15.20;76.70;;;;;;4998847;28;46465;-86
2022/10/15 06:14:40;;;;;;;2.60;1.33;;;15.20;76.80;;;;;;4980770;28;46405;-85
2022/10/15 06:17:06;;;;;;;1.50;1.00;;;15.20;76.80;;;;;;4984299;28;46425;-84
2022/10/15 06:19:31;;;;;;;3.40;1.40;;;15.20;76.80;;;;;;4978138;28;49464;-86
2022/10/15 06:21:57;;;;;;;1.30;0.90;;;15.20;76.80;;;;;;4971545;28;45849;-85
2022/10/15 06:24:22;;;;;;;2.10;1.07;;;15.20;76.60;;;;;;4975318;28;46305;-86
2022/10/15 06:26:48;;;;;;;2.30;1.10;;;15.30;76.70;;;;;;4982480;28;45909;-86
2022/10/15 06:29:13;;;;;;;1.70;1.07;;;15.30;76.70;;;;;;4979216;28;48035;-83
2022/10/15 06:31:39;;;;;;;1.70;1.07;;;15.30;76.50;;;;;;4975597;28;46379;-85
2022/10/15 06:34:04;;;;;;;2.70;1.47;;;15.50;76.50;;;;;;4989883;28;46953;-85
2022/10/15 06:36:30;;;;;;;3.23;1.20;;;15.50;76.10;;;;;;4987454;28;46637;-84
2022/10/15 06:38:55;;;;;;;4.50;1.80;;;15.50;75.90;;;;;;4974520;28;48963;-85
2022/10/15 06:41:21;;;;;;;1.80;1.03;;;15.60;75.90;;;;;;4986926;28;45845;-84
2022/10/15 06:43:50;;;;;;;3.27;0.90;;;15.60;75.90;;;;;;4969907;28;46351;-84
2022/10/15 06:46:15;;;;;;;4.70;0.90;;;15.60;75.90;;;;;;4985255;28;46360;-85
2022/10/15 06:48:41;;;;;;;1.40;0.90;;;15.70;75.90;;;;;;4990573;28;49096;-85
2022/10/15 06:51:07;;;;;;;1.97;0.80;;;15.80;75.80;;;;;;4978982;28;46507;-84
2022/10/15 06:53:33;;;;;;;2.73;1.10;;;15.80;75.40;;;;;;4982498;28;45802;-84
2022/10/15 06:56:00;;;;;;;2.30;1.10;;;16.00;74.10;;;;;;4984951;28;47253;-84
2022/10/15 06:58:26;;;;;;;1.60;0.90;;;15.90;74.90;;;;;;4966319;28;48123;-84
2022/10/15 07:00:51;;;;;;;1.40;0.80;;;16.00;74.80;;;;;;4970973;28;46336;-84
2022/10/15 07:03:17;;;;;;;1.77;1.00;;;16.10;74.80;;;;;;4970237;28;46465;-84
2022/10/15 07:05:42;;;;;;;1.30;0.70;;;16.00;74.70;;;;;;4988276;28;46666;-84
2022/10/15 07:08:08;;;;;;;1.40;0.80;;;16.00;74.70;;;;;;4968443;28;48987;-84
2022/10/15 07:10:34;;;;;;;5.13;1.40;;;16.10;74.70;;;;;;4974085;28;46104;-85
2022/10/15 07:13:00;;;;;;;3.00;0.87;;;16.20;74.40;;;;;;4985818;28;46335;-84
2022/10/15 07:15:26;;;;;;;3.83;1.10;;;16.20;74.30;;;;;;4987899;28;46318;-84
2022/10/15 07:18:00;;;;;;;5.73;3.20;;;16.20;74.50;;;;;;4980711;28;46671;-85
2022/10/15 07:20:27;;;;;;;1.53;1.00;;;16.20;74.60;;;;;;4968059;28;47282;-84
2022/10/15 07:22:59;;;;;;;4.70;1.00;;;16.30;74.40;;;;;;4976157;28;46373;-83
2022/10/15 07:25:26;;;;;;;1.43;0.83;;;16.30;74.00;;;;;;4996555;28;46586;-84
2022/10/15 07:27:54;;;;;;;2.40;1.00;;;16.30;73.90;;;;;;4979036;28;48393;-85
2022/10/15 07:30:21;;;;;;;1.47;0.87;;;16.30;73.80;;;;;;4980130;28;46938;-85
2022/10/15 07:32:47;;;;;;;3.20;1.00;;;16.30;73.50;;;;;;4993925;28;46454;-84
2022/10/15 07:35:13;;;;;;;2.40;1.00;;;16.40;73.80;;;;;;4976770;28;46517;-82
2022/10/15 07:37:38;;;;;;;1.40;0.80;;;16.40;73.70;;;;;;4978179;28;49088;-85
2022/10/15 07:40:05;;;;;;;10.73;1.00;;;16.40;73.60;;;;;;4975829;28;45932;-85
2022/10/15 07:42:30;;;;;;;1.47;0.77;;;16.30;73.60;;;;;;4995898;28;45826;-86
2022/10/15 07:44:56;;;;;;;2.70;1.00;;;16.40;73.70;;;;;;4998176;28;46458;-86
2022/10/15 07:47:21;;;;;;;1.60;0.90;;;16.40;73.60;;;;;;4975759;28;48143;-86
2022/10/15 07:49:47;;;;;;;1.90;0.70;;;16.40;73.50;;;;;;4998578;28;50173;-85
2022/10/15 07:52:13;;;;;;;1.60;0.90;;;16.50;73.30;;;;;;4978015;28;46422;-85
2022/10/15 07:54:38;;;;;;;2.77;0.83;;;16.50;73.10;;;;;;4978979;28;45925;-85
2022/10/15 07:57:05;;;;;;;1.77;0.97;;;16.60;73.00;;;;;;4998058;28;46251;-85
2022/10/15 07:59:31;;;;;;;1.57;0.87;;;16.70;72.70;;;;;;4980784;28;46370;-85
2022/10/15 08:01:57;;;;;;;3.80;0.93;;;16.90;72.20;;;;;;4975815;28;46590;-86
2022/10/15 08:04:23;;;;;;;1.70;0.90;;;17.10;71.60;;;;;;4986663;28;46279;-84
2022/10/15 08:06:48;;;;;;;2.13;0.90;;;17.30;71.20;;;;;;4982023;28;46363;-85
2022/10/15 08:09:14;;;;;;;4.50;3.47;;;17.30;71.20;;;;;;4983664;28;46796;-86
2022/10/15 08:11:40;;;;;;;3.00;1.20;;;17.40;71.30;;;;;;4966582;28;45890;-84
2022/10/15 08:14:05;;;;;;;2.60;1.77;;;17.20;71.20;;;;;;4968253;28;46361;-85
2022/10/15 08:16:31;;;;;;;1.63;0.90;;;17.10;71.10;;;;;;4969629;28;48415;-85
2022/10/15 08:18:57;;;;;;;2.30;1.10;;;16.90;71.70;;;;;;4987261;28;46426;-85
2022/10/15 08:21:23;;;;;;;2.13;0.90;;;16.80;72.10;;;;;;4987144;28;46286;-85
2022/10/15 08:23:48;;;;;;;2.30;1.17;;;16.70;72.40;;;;;;4968795;28;46505;-84
2022/10/15 08:26:14;;;;;;;5.90;1.03;;;16.80;72.30;;;;;;4987386;28;46510;-85
2022/10/15 08:28:39;;;;;;;2.27;1.00;;;16.80;72.30;;;;;;4969334;28;49742;-84
2022/10/15 08:31:05;;;;;;;4.73;1.30;;;16.80;72.30;;;;;;4990065;28;46503;-85
2022/10/15 08:33:31;;;;;;;2.43;0.97;;;16.80;72.20;;;;;;4975602;28;46804;-85
2022/10/15 08:35:56;;;;;;;2.03;1.00;;;16.60;71.50;;;;;;4973729;28;48187;-85
2022/10/15 08:38:22;;;;;;;2.90;1.10;;;16.50;72.50;;;;;;4969853;28;46796;-85
2022/10/15 08:40:50;;;;;;;2.83;1.00;;;16.40;73.10;;;;;;4986802;28;46445;-84
2022/10/15 08:43:38;;;;;;;1.30;0.70;;;16.00;73.90;;;;;;4969925;28;46665;-84
2022/10/15 08:46:10;;;;;;;2.70;0.83;;;15.90;74.60;;;;;;4969036;28;49657;-84
2022/10/15 08:48:42;;;;;;;1.60;0.80;;;15.90;74.70;;;;;;4968439;28;46317;-84
2022/10/15 08:51:17;;;;;;;2.13;1.00;;;16.00;74.60;;;;;;4966082;28;46486;-84
2022/10/15 08:53:49;;;;;;;2.30;0.80;;;16.10;74.20;;;;;;4968041;28;46718;-84
2022/10/15 08:56:26;;;;;;;11.03;1.20;;;16.40;73.50;;;;;;4987798;28;46620;-84
2022/10/15 08:59:09;;;;;;;2.37;1.00;;;16.70;72.70;;;;;;4967282;28;46287;-84
2022/10/15 09:01:53;;;;;;;13.50;5.63;;;16.90;72.10;;;;;;4964645;28;46593;-84
2022/10/15 09:04:59;;;;;;;3.70;2.70;;;17.30;72.40;;;;;;4965969;28;46610;-84
2022/10/15 09:07:43;;;;;;;2.30;1.70;;;17.60;70.60;;;;;;4974700;28;47919;-86
2022/10/15 09:10:30;;;;;;;2.00;1.17;;;17.90;70.00;;;;;;4977643;28;46518;-87
2022/10/15 09:13:06;;;;;;;2.10;1.30;;;18.10;69.40;;;;;;4977004;28;45897;-86
2022/10/15 09:15:45;;;;;;;2.63;1.23;;;18.20;69.20;;;;;;4991633;28;46460;-86
2022/10/15 09:18:24;;;;;;;2.30;1.23;;;18.30;68.80;;;;;;4991046;28;46474;-85
2022/10/15 09:20:51;;;;;;;3.20;1.27;;;18.40;68.30;;;;;;4978262;28;45883;-86
2022/10/15 09:23:20;;;;;;;2.93;1.20;;;18.40;68.60;;;;;;4999616;28;46422;-86
2022/10/15 09:25:56;;;;;;;3.33;1.10;;;18.50;68.20;;;;;;4996275;28;46409;-85
2022/10/15 09:28:28;;;;;;;6.80;1.00;;;18.50;68.20;;;;;;4969844;28;47899;-83
2022/10/15 09:30:56;;;;;;;5.73;1.40;;;18.50;68.20;;;;;;4987324;28;46296;-83
2022/10/15 09:33:40;;;;;;;2.37;1.10;;;18.60;68.20;;;;;;4969860;28;46485;-84
2022/10/15 09:36:15;;;;;;;2.37;1.20;;;18.90;66.10;;;;;;4987640;28;46431;-82
2022/10/15 09:38:43;;;;;;;3.70;1.47;;;19.10;67.20;;;;;;4968862;28;48152;-81
2022/10/15 09:41:27;;;;;;;8.87;1.07;;;19.20;66.80;;;;;;4964692;28;46414;-82
2022/10/15 09:43:56;;;;;;;7.60;2.93;;;19.50;65.40;;;;;;4965886;28;46460;-82
2022/10/15 09:46:22;;;;;;;4.33;1.20;;;19.70;64.90;;;;;;4966670;28;46449;-82
2022/10/15 09:49:10;;;;;;;2.93;1.07;;;19.80;63.70;;;;;;4982034;28;46392;-81
2022/10/15 09:51:43;;;;;;;2.90;1.10;;;19.90;63.90;;;;;;4982615;28;46393;-82
2022/10/15 09:54:15;;;;;;;4.07;0.90;;;19.90;62.80;;;;;;4981909;28;46457;-83
2022/10/15 09:56:47;;;;;;;2.33;0.90;;;19.90;63.00;;;;;;4988047;28;46458;-83
2022/10/15 09:59:17;;;;;;;2.50;0.80;;;19.80;63.00;;;;;;4966967;28;49458;-83
2022/10/15 10:02:01;;;;;;;3.30;1.40;;;19.80;62.70;;;;;;4980074;28;46364;-84
2022/10/15 10:04:29;;;;;;;2.40;1.03;;;19.70;61.10;;;;;;4998761;28;46444;-82
2022/10/15 10:06:58;;;;;;;3.00;0.97;;;19.90;61.20;;;;;;4977993;28;45888;-83
2022/10/15 10:09:30;;;;;;;2.03;1.20;;;20.10;60.90;;;;;;4971019;28;48098;-82
2022/10/15 10:11:59;;;;;;;4.90;1.30;;;20.20;61.00;;;;;;4986477;28;46632;-83
2022/10/15 10:14:40;;;;;;;3.53;1.20;;;20.30;60.40;;;;;;4970418;28;46542;-83
2022/10/15 10:17:17;;;;;;;4.87;1.10;;;20.30;59.70;;;;;;4988036;28;46233;-83
2022/10/15 10:19:45;;;;;;;2.27;0.90;;;20.20;59.50;;;;;;4971416;28;48583;-82
2022/10/15 10:22:16;;;;;;;3.13;1.03;;;20.20;59.70;;;;;;4974284;28;46460;-83
2022/10/15 10:24:42;;;;;;;3.20;1.10;;;20.00;59.90;;;;;;4987172;28;46452;-83
2022/10/15 10:27:31;;;;;;;4.30;1.17;;;19.90;59.80;;;;;;4974717;28;46502;-83
2022/10/15 10:30:00;;;;;;;3.53;1.00;;;20.00;59.20;;;;;;4961695;28;48272;-83
2022/10/15 10:32:34;;;;;;;3.50;1.30;;;20.10;58.90;;;;;;4971805;28;46466;-82
2022/10/15 10:35:01;;;;;;;3.30;1.10;;;20.00;57.80;;;;;;4978642;28;46542;-83
2022/10/15 10:37:28;;;;;;;3.23;0.90;;;20.00;57.30;;;;;;4988836;28;46320;-82
2022/10/15 10:39:57;;;;;;;3.07;1.30;;;20.30;57.20;;;;;;4968678;28;49167;-81
2022/10/15 10:42:31;;;;;;;2.97;1.00;;;20.40;55.90;;;;;;4985194;28;46647;-83
2022/10/15 10:45:28;;;;;;;2.10;0.90;;;20.50;55.70;;;;;;4988329;28;46343;-83
2022/10/15 10:47:54;;;;;;;5.40;1.20;;;20.50;54.70;;;;;;4970718;28;46759;-83
2022/10/15 10:50:46;;;;;;;2.00;1.00;;;20.30;54.60;;;;;;4971035;28;48429;-82
2022/10/15 10:53:24;;;;;;;6.30;1.00;;;20.30;54.50;;;;;;4987853;28;46307;-83
2022/10/15 10:55:52;;;;;;;9.17;1.10;;;20.50;54.40;;;;;;4987293;28;46005;-83
2022/10/15 10:58:21;;;;;;;1.80;0.93;;;20.20;51.90;;;;;;4981400;28;46581;-83
2022/10/15 11:00:51;;;;;;;2.60;1.10;;;20.00;53.00;;;;;;4973405;28;48161;-83
2022/10/15 11:03:22;;;;;;;2.03;0.90;;;20.20;53.50;;;;;;4970036;28;47186;-84
2022/10/15 11:05:52;;;;;;;6.10;1.20;;;20.00;53.20;;;;;;4973062;28;46410;-82
2022/10/15 11:08:46;;;;;;;3.00;1.10;;;20.10;53.50;;;;;;4990984;28;46326;-84
2022/10/15 11:11:23;;;;;;;3.00;1.00;;;20.00;53.20;;;;;;4995149;28;46546;-83
2022/10/15 11:13:57;;;;;;;3.03;1.07;;;19.90;53.10;;;;;;4963227;28;46531;-83
2022/10/15 11:16:34;;;;;;;2.77;1.20;;;19.80;53.80;;;;;;4987201;28;46154;-84
2022/10/15 11:19:24;;;;;;;4.40;1.10;;;19.70;53.60;;;;;;4972194;28;46461;-82
2022/10/15 11:22:06;;;;;;;6.40;1.10;;;19.70;54.30;;;;;;4986729;28;46668;-84
2022/10/15 11:24:34;;;;;;;3.13;1.30;;;19.90;54.00;;;;;;4987617;28;45868;-90
2022/10/15 11:27:18;;;;;;;3.20;1.03;;;20.00;52.70;;;;;;4981900;28;46480;-82
2022/10/15 11:30:01;;;;;;;7.43;1.23;;;19.90;53.00;;;;;;4963510;28;46782;-82
2022/10/15 11:32:56;;;;;;;3.47;1.13;;;19.90;52.70;;;;;;4964728;28;48830;-83
2022/10/15 11:35:43;;;;;;;7.00;1.13;;;19.50;52.70;;;;;;4935645;28;46460;-83
2022/10/15 11:38:38;;;;;;;4.40;1.20;;;19.30;53.20;;;;;;4969497;28;46739;-82
2022/10/15 11:41:35;;;;;;;2.83;1.00;;;19.30;53.60;;;;;;4985154;28;46776;-83
2022/10/15 11:44:27;;;;;;;2.87;1.00;;;19.20;53.30;;;;;;4986449;28;47650;-83
2022/10/15 11:47:05;;;;;;;2.43;1.00;;;19.00;53.70;;;;;;4964512;28;46480;-84
2022/10/15 11:49:55;;;;;;;2.20;1.00;;;19.10;53.80;;;;;;4982777;28;46698;-81
2022/10/15 11:53:01;;;;;;;3.53;0.90;;;19.10;54.00;;;;;;4968134;28;46394;-83
2022/10/15 11:55:46;;;;;;;3.37;1.30;;;19.10;53.80;;;;;;4946515;28;48037;-84
2022/10/15 11:58:29;;;;;;;5.30;1.87;;;19.10;53.80;;;;;;4968572;28;46524;-82
2022/10/15 12:01:00;;;;;;;2.40;0.90;;;19.00;53.30;;;;;;4960890;28;46595;-84
2022/10/15 12:03:30;;;;;;;2.50;1.00;;;18.90;53.60;;;;;;4988935;28;45892;-84
2022/10/15 12:06:02;;;;;;;3.90;1.43;;;18.90;53.80;;;;;;4983023;28;47549;-84
2022/10/15 12:08:34;;;;;;;4.10;1.10;;;19.00;54.20;;;;;;4980133;28;46619;-83
2022/10/15 12:11:10;;;;;;;3.73;1.13;;;19.30;54.10;;;;;;4986026;28;45884;-83
2022/10/15 12:14:05;;;;;;;5.80;1.37;;;19.30;53.70;;;;;;4967843;28;46431;-83
2022/10/15 12:16:53;;;;;;;5.03;1.27;;;19.30;53.80;;;;;;4977229;28;47445;-85
2022/10/15 12:19:27;;;;;;;3.13;1.73;;;19.10;53.90;;;;;;4966043;28;46660;-83
2022/10/15 12:21:55;;;;;;;7.33;1.27;;;19.20;54.40;;;;;;4982496;28;46417;-84
2022/10/15 12:24:36;;;;;;;3.67;1.00;;;19.20;54.20;;;;;;4984987;28;46446;-83
2022/10/15 12:27:27;;;;;;;3.30;1.30;;;19.00;54.20;;;;;;4966974;28;49673;-82
2022/10/15 12:29:58;;;;;;;2.50;1.10;;;19.00;54.60;;;;;;4973735;28;46438;-83
2022/10/15 12:32:36;;;;;;;7.00;1.20;;;19.10;54.80;;;;;;4973742;28;46491;-83
2022/10/15 12:35:05;;;;;;;3.83;1.20;;;19.20;54.70;;;;;;4992303;28;46457;-83
2022/10/15 12:37:34;;;;;;;2.00;1.00;;;19.20;54.60;;;;;;4987728;28;47574;-83
2022/10/15 12:40:22;;;;;;;4.27;1.10;;;19.10;54.20;;;;;;4967703;28;46407;-82
2022/10/15 12:43:15;;;;;;;2.10;1.00;;;18.90;54.50;;;;;;4982664;28;46568;-85
2022/10/15 12:45:50;;;;;;;2.57;1.13;;;18.80;54.00;;;;;;4965724;28;46589;-84
2022/10/15 12:48:18;;;;;;;3.80;1.20;;;18.80;53.20;;;;;;4963346;28;49439;-83
2022/10/15 12:50:44;;;;;;;4.47;1.03;;;18.90;52.30;;;;;;4962385;28;46759;-85
2022/10/15 12:53:25;;;;;;;4.27;1.07;;;19.10;52.00;;;;;;4966007;28;46473;-84
2022/10/15 12:56:12;;;;;;;3.10;1.33;;;19.10;51.50;;;;;;4964073;28;46771;-83
2022/10/15 12:58:41;;;;;;;2.00;0.90;;;19.40;51.20;;;;;;4962266;28;48089;-86
2022/10/15 13:01:13;;;;;;;2.83;1.23;;;19.60;50.60;;;;;;4976306;28;46950;-84
2022/10/15 13:03:44;;;;;;;7.10;1.30;;;19.40;50.30;;;;;;4968203;28;46670;-84
2022/10/15 13:06:19;;;;;;;3.30;1.33;;;19.40;50.60;;;;;;4990968;28;45846;-85